Time;durP1;ratioP1;P1;durP2;ratioP2;P2;SDS_P1;SDS_P2;PMS_P1;PMS_P2;Temp;Humidity;BMP_temperature;BMP_pressure;BME280_temperature;BME280_humidity;BME280_pressure;Samples;Min_cycle;Max_cycle;Signal;HPM_P1;HPM_P2
2021/08/20 00:00:56;;;;;;;6.40;4.53;;;;;;;11.22;91.31;93325.80;1778669;80;21160;-85
2021/08/20 00:03:24;;;;;;;5.55;4.10;;;;;;;11.22;90.87;93325.80;1744858;79;21016;-86
2021/08/20 00:05:51;;;;;;;7.50;4.60;;;;;;;11.19;90.38;93324.64;1699034;82;21113;-85
2021/08/20 00:08:19;;;;;;;4.62;3.75;;;;;;;11.17;90.35;93322.92;1697651;80;21105;-88
2021/08/20 00:10:54;;;;;;;5.95;4.47;;;;;;;11.18;90.34;93328.55;1705281;81;22296;-87
2021/08/20 00:13:22;;;;;;;8.18;4.53;;;;;;;11.19;90.17;93328.72;1720159;81;21077;-85
2021/08/20 00:15:57;;;;;;;5.47;4.65;;;;;;;11.23;90.20;93337.63;1759809;80;21112;-85
2021/08/20 00:18:25;;;;;;;7.70;4.30;;;;;;;11.23;90.30;93328.11;1720346;80;21306;-85
2021/08/20 00:20:56;;;;;;;6.28;3.92;;;;;;;11.25;90.20;93330.44;1757868;79;21061;-85
2021/08/20 00:23:25;;;;;;;5.28;3.85;;;;;;;11.25;90.23;93332.58;1741449;80;21058;-86
2021/08/20 00:25:57;;;;;;;5.92;4.10;;;;;;;11.21;90.13;93323.66;1707459;83;21061;-86
2021/08/20 00:28:25;;;;;;;7.33;4.60;;;;;;;11.17;90.02;93324.28;1709169;82;21134;-87
2021/08/20 00:30:53;;;;;;;6.22;4.35;;;;;;;11.13;89.75;93319.42;1711220;82;21065;-85
2021/08/20 00:33:20;;;;;;;5.90;4.50;;;;;;;11.11;89.65;93319.07;1709448;81;21152;-86
2021/08/20 00:35:48;;;;;;;6.60;4.58;;;;;;;11.13;89.68;93316.70;1685777;83;21056;-86
2021/08/20 00:38:14;;;;;;;5.47;4.62;;;;;;;11.16;89.67;93314.55;1696278;82;21078;-86
2021/08/20 00:40:42;;;;;;;5.33;4.10;;;;;;;11.17;89.55;93314.76;1718847;81;21026;-86
2021/08/20 00:43:08;;;;;;;6.00;4.17;;;;;;;11.17;89.42;93310.09;1787325;78;21029;-87
2021/08/20 00:45:36;;;;;;;6.58;4.10;;;;;;;11.15;89.18;93308.34;1742111;80;21049;-87
2021/08/20 00:48:04;;;;;;;5.03;4.35;;;;;;;11.12;88.93;93310.49;1782776;79;21097;-87
2021/08/20 00:50:31;;;;;;;5.80;4.35;;;;;;;11.08;88.71;93313.83;1769103;79;21057;-87
2021/08/20 00:53:02;;;;;;;6.15;4.50;;;;;;;11.04;88.65;93306.88;1774952;79;21058;-86
2021/08/20 00:55:30;;;;;;;9.85;4.53;;;;;;;11.00;88.82;93303.41;1777060;79;21015;-86
2021/08/20 00:57:58;;;;;;;8.60;5.53;;;;;;;11.00;89.13;93312.34;1765904;79;21077;-87
2021/08/20 01:00:24;;;;;;;8.08;5.70;;;;;;;11.03;89.25;93311.55;1734406;79;21055;-87
2021/08/20 01:02:53;;;;;;;8.65;6.28;;;;;;;11.03;89.44;93308.05;1723549;81;21067;-86
2021/08/20 01:05:19;;;;;;;8.83;7.20;;;;;;;11.03;89.73;93308.05;1735755;80;21010;-86
2021/08/20 01:07:47;;;;;;;8.88;6.22;;;;;;;11.03;90.19;93306.11;1754572;80;21133;-86
2021/08/20 01:10:15;;;;;;;12.50;7.42;;;;;;;11.03;90.49;93303.98;1747718;79;21291;-86
2021/08/20 01:12:45;;;;;;;13.62;9.80;;;;;;;11.01;90.68;93301.64;1778983;78;21560;-86
2021/08/20 01:15:12;;;;;;;11.35;8.38;;;;;;;10.97;90.72;93309.64;1740955;79;21101;-86
2021/08/20 01:17:40;;;;;;;8.93;6.17;;;;;;;10.87;91.03;93306.61;1727726;79;21096;-87
2021/08/20 01:20:10;;;;;;;6.58;4.45;;;;;;;10.77;90.71;93303.38;1764134;79;21034;-87
2021/08/20 01:22:38;;;;;;;7.83;5.45;;;;;;;10.70;90.22;93304.77;1769713;79;21066;-86
2021/08/20 01:25:05;;;;;;;12.35;6.15;;;;;;;10.63;90.06;93302.09;1776630;78;21061;-86
2021/08/20 01:27:35;;;;;;;7.70;6.12;;;;;;;10.60;90.18;93300.17;1768744;78;21493;-87
2021/08/20 01:30:05;;;;;;;8.35;5.35;;;;;;;10.62;90.33;93303.27;1787105;78;21076;-86
2021/08/20 01:32:34;;;;;;;8.03;5.60;;;;;;;10.60;89.97;93294.73;1750725;80;21086;-86
2021/08/20 01:37:30;;;;;;;6.47;4.33;;;;;;;10.48;90.53;93295.97;1763404;79;21629;-86
2021/08/20 01:39:58;;;;;;;10.03;3.95;;;;;;;10.48;91.00;93296.55;1781173;78;21077;-86
2021/08/20 01:42:25;;;;;;;4.90;3.60;;;;;;;10.45;91.44;93299.47;1761206;78;21085;-87
2021/08/20 01:44:52;;;;;;;4.67;3.55;;;;;;;10.42;91.62;93292.91;1748894;79;21004;-86
2021/08/20 01:47:20;;;;;;;5.45;3.33;;;;;;;10.37;91.83;93296.02;1730999;80;21106;-87
2021/08/20 01:49:47;;;;;;;4.53;3.70;;;;;;;10.29;91.79;93299.95;1708597;81;21038;-85
2021/08/20 01:52:15;;;;;;;10.93;5.35;;;;;;;10.22;92.29;93299.36;1732319;80;21120;-86
2021/08/20 01:54:41;;;;;;;8.18;5.83;;;;;;;10.20;92.18;93301.71;1777605;78;21073;-86
2021/08/20 01:57:09;;;;;;;7.30;5.75;;;;;;;10.18;92.14;93298.60;1756820;78;21093;-86
2021/08/20 01:59:37;;;;;;;8.68;5.83;;;;;;;10.18;92.10;93300.55;1710936;81;21764;-86
2021/08/20 02:02:06;;;;;;;6.12;4.95;;;;;;;10.15;91.88;93293.19;1709716;82;21089;-87
2021/08/20 02:04:33;;;;;;;8.85;6.08;;;;;;;10.09;91.71;93287.98;1731719;80;21156;-87
2021/08/20 02:07:01;;;;;;;11.50;6.40;;;;;;;10.04;92.15;93293.25;1776288;78;21058;-86
2021/08/20 02:09:28;;;;;;;8.58;5.30;;;;;;;10.00;92.33;93293.05;1739145;78;21750;-88
2021/08/20 02:11:55;;;;;;;6.60;5.20;;;;;;;9.99;92.50;93300.43;1718096;81;21760;-86
2021/08/20 02:14:24;;;;;;;5.67;4.55;;;;;;;9.98;92.64;93290.73;1734086;78;21087;-86
2021/08/20 02:16:51;;;;;;;4.78;3.98;;;;;;;9.97;92.61;93296.77;1796497;78;20990;-87
2021/08/20 02:19:17;;;;;;;5.10;3.75;;;;;;;9.96;92.96;93295.19;1721998;78;21085;-87
2021/08/20 02:21:44;;;;;;;4.25;3.85;;;;;;;9.94;92.81;93296.19;1756769;77;21223;-88
2021/08/20 02:24:15;;;;;;;7.55;4.60;;;;;;;9.86;92.66;93298.73;1786728;79;21667;-87
2021/08/20 02:26:45;;;;;;;6.92;5.42;;;;;;;9.79;93.04;93298.76;1792269;79;21129;-87
2021/08/20 02:29:12;;;;;;;8.30;6.30;;;;;;;9.76;93.08;93296.83;1792157;78;21038;-87
2021/08/20 02:31:38;;;;;;;5.72;4.80;;;;;;;9.70;92.84;93299.18;1714601;78;21973;-87
2021/08/20 02:34:05;;;;;;;5.55;4.10;;;;;;;9.66;93.11;93303.05;1757922;78;21084;-86
2021/08/20 02:36:32;;;;;;;7.50;5.92;;;;;;;9.65;93.47;93305.58;1780409;78;21634;-86
2021/08/20 02:38:58;;;;;;;13.48;8.58;;;;;;;9.62;93.45;93305.77;1760469;80;21029;-87
2021/08/20 02:41:26;;;;;;;15.38;10.90;;;;;;;9.57;93.27;93307.53;1771475;79;21056;-87
2021/08/20 02:43:52;;;;;;;17.73;11.38;;;;;;;9.51;93.20;93304.24;1766650;79;21608;-87
2021/08/20 02:46:19;;;;;;;14.63;11.10;;;;;;;9.49;93.25;93314.14;1794679;78;21057;-87
2021/08/20 02:48:46;;;;;;;17.02;10.93;;;;;;;9.47;93.14;93310.45;1774775;78;21100;-87
2021/08/20 02:51:13;;;;;;;11.15;8.63;;;;;;;9.43;93.08;93311.03;1776797;78;21448;-87
2021/08/20 02:53:41;;;;;;;11.03;7.03;;;;;;;9.40;92.97;93316.47;1795106;78;21166;-86
2021/08/20 02:56:08;;;;;;;9.05;6.47;;;;;;;9.37;93.16;93313.20;1777620;79;21142;-87
2021/08/20 02:58:40;;;;;;;5.95;4.70;;;;;;;9.34;93.46;93310.67;1771943;79;21053;-88
2021/08/20 03:01:08;;;;;;;5.72;4.20;;;;;;;9.31;93.78;93315.52;1786634;78;21152;-87
2021/08/20 03:03:34;;;;;;;7.28;4.65;;;;;;;9.27;93.62;93307.97;1738627;80;21086;-87
2021/08/20 03:06:01;;;;;;;6.50;4.22;;;;;;;9.23;93.62;93312.62;1724135;82;21115;-87
2021/08/20 03:08:29;;;;;;;7.33;4.45;;;;;;;9.20;93.77;93311.45;1715519;82;21049;-87
2021/08/20 03:10:56;;;;;;;7.35;4.87;;;;;;;9.19;93.67;93314.56;1661419;84;21336;-87
2021/08/20 03:13:25;;;;;;;5.50;4.45;;;;;;;9.14;93.50;93313.02;1780106;78;21056;-87
2021/08/20 03:15:53;;;;;;;6.40;4.92;;;;;;;9.07;93.35;93314.38;1772525;78;21093;-87
2021/08/20 03:18:20;;;;;;;7.28;5.33;;;;;;;8.99;93.39;93314.95;1729466;78;21598;-86
2021/08/20 03:20:48;;;;;;;9.33;5.87;;;;;;;8.94;93.51;93311.25;1789760;78;21533;-87
2021/08/20 03:23:17;;;;;;;9.40;5.40;;;;;;;8.92;93.98;93313.59;1771517;79;21925;-86
2021/08/20 03:25:45;;;;;;;5.55;4.83;;;;;;;8.93;94.30;93315.72;1794731;78;21022;-86
2021/08/20 03:28:13;;;;;;;7.28;5.25;;;;;;;8.93;94.15;93324.63;1794559;78;21037;-87
2021/08/20 03:30:42;;;;;;;5.60;4.53;;;;;;;8.89;93.97;93319.78;1797331;78;21025;-86
2021/08/20 03:33:08;;;;;;;4.35;3.77;;;;;;;8.84;94.15;93313.95;1797366;78;21049;-86
2021/08/20 03:35:37;;;;;;;6.30;4.45;;;;;;;8.85;94.64;93322.30;1799404;78;21022;-86
2021/08/20 03:38:04;;;;;;;5.15;4.08;;;;;;;8.86;94.94;93323.27;1799288;78;22111;-85
2021/08/20 03:40:32;;;;;;;4.65;3.40;;;;;;;8.91;94.93;93320.19;1795300;78;22125;-86
2021/08/20 03:43:00;;;;;;;5.10;3.62;;;;;;;8.94;94.49;93324.05;1797441;78;21069;-87
2021/08/20 03:45:39;;;;;;;6.30;4.03;;;;;;;8.91;94.48;93326.17;1797184;78;21093;-86
2021/08/20 03:48:09;;;;;;;6.10;3.92;;;;;;;8.89;94.46;93334.70;1786682;78;21200;-87
2021/08/20 03:50:36;;;;;;;5.45;4.42;;;;;;;8.87;94.21;93330.23;1797035;78;21082;-86
2021/08/20 03:53:02;;;;;;;5.87;4.70;;;;;;;8.83;94.12;93338.94;1799722;78;21567;-86
2021/08/20 03:55:32;;;;;;;9.73;4.87;;;;;;;8.81;94.29;93341.28;1758028;78;21033;-86
2021/08/20 03:58:13;;;;;;;6.95;4.08;;;;;;;8.82;94.04;93344.77;1790472;78;21070;-87
2021/08/20 04:00:39;;;;;;;5.58;3.60;;;;;;;8.79;93.87;93351.72;1757877;78;21613;-87
2021/08/20 04:03:06;;;;;;;4.62;3.87;;;;;;;8.76;94.17;93353.84;1788183;78;21124;-87
2021/08/20 04:05:36;;;;;;;9.88;3.85;;;;;;;8.75;94.30;93350.36;1789057;79;21113;-87
2021/08/20 04:08:05;;;;;;;5.50;3.70;;;;;;;8.77;94.48;93348.63;1779943;79;21569;-87
2021/08/20 04:10:43;;;;;;;8.85;4.83;;;;;;;8.76;94.36;93356.55;1765997;79;21018;-88
2021/08/20 04:13:17;;;;;;;11.70;6.17;;;;;;;8.72;94.03;93359.25;1786105;79;21473;-87
2021/08/20 04:15:47;;;;;;;8.05;5.92;;;;;;;8.66;94.03;93361.39;1747145;79;21031;-87
2021/08/20 04:18:16;;;;;;;17.12;7.03;;;;;;;8.62;94.19;93361.38;1741769;80;21045;-89
2021/08/20 04:20:43;;;;;;;13.40;6.55;;;;;;;8.61;94.18;93363.10;1774542;79;21081;-87
2021/08/20 04:23:11;;;;;;;15.70;7.92;;;;;;;8.60;94.33;93358.84;1703741;81;21085;-88
2021/08/20 04:25:40;;;;;;;17.60;8.88;;;;;;;8.59;94.29;93358.66;1778089;78;21053;-88
2021/08/20 04:28:27;;;;;;;14.93;6.95;;;;;;;8.55;94.19;93360.00;1754952;78;21252;-89
2021/08/20 04:30:56;;;;;;;17.02;7.78;;;;;;;8.49;94.08;93365.00;1769475;79;21052;-88
2021/08/20 04:33:24;;;;;;;6.92;4.75;;;;;;;8.46;94.30;93359.02;1777227;78;21187;-88
2021/08/20 04:36:00;;;;;;;7.83;5.40;;;;;;;8.60;95.35;93361.56;1723449;79;21077;-89
2021/08/20 04:38:30;;;;;;;9.40;4.70;;;;;;;8.83;95.59;93359.86;1738520;80;21382;-88
2021/08/20 04:41:15;;;;;;;10.60;5.08;;;;;;;9.07;95.19;93362.43;1710390;78;21460;-87
2021/08/20 04:43:50;;;;;;;8.50;5.00;;;;;;;9.37;94.69;93364.76;1728499;78;21048;-86
2021/08/20 04:46:24;;;;;;;11.38;7.05;;;;;;;9.82;94.06;93367.81;1758083;78;21735;-86
2021/08/20 04:49:01;;;;;;;13.03;6.80;;;;;;;10.49;92.43;93357.91;1697972;78;21548;-86
2021/08/20 04:51:34;;;;;;;15.93;5.80;;;;;;;11.18;89.86;93355.77;1744639;78;21218;-86
2021/08/20 04:54:12;;;;;;;8.38;4.83;;;;;;;11.70;86.78;93353.56;1699063;81;21083;-87
2021/08/20 04:56:46;;;;;;;6.10;4.65;;;;;;;12.00;84.11;93355.64;1704943;81;21121;-88
2021/08/20 04:59:13;;;;;;;6.15;5.12;;;;;;;12.28;82.47;93355.34;1684125;82;21144;-87
2021/08/20 05:01:39;;;;;;;6.97;4.80;;;;;;;12.59;80.77;93353.99;1728459;79;21559;-86
2021/08/20 05:04:06;;;;;;;5.00;4.42;;;;;;;12.69;79.40;93344.91;1754945;79;21057;-87
2021/08/20 05:06:33;;;;;;;21.85;6.17;;;;;;;12.74;78.89;93357.31;1788921;77;21143;-87
2021/08/20 05:09:02;;;;;;;5.42;4.75;;;;;;;12.68;78.14;93353.52;1802287;77;21103;-88
2021/08/20 05:11:30;;;;;;;5.50;4.83;;;;;;;12.56;78.01;93361.63;1786313;78;43280;-88
2021/08/20 05:13:57;;;;;;;11.73;5.90;;;;;;;12.42;77.88;93355.00;1768731;78;21062;-86
2021/08/20 05:16:25;;;;;;;11.50;6.97;;;;;;;12.31;78.15;93355.13;1788871;78;21077;-86
2021/08/20 05:18:53;;;;;;;8.00;5.55;;;;;;;12.21;78.29;93363.59;1799624;77;22399;-87
2021/08/20 05:21:20;;;;;;;6.05;5.45;;;;;;;12.15;78.92;93359.19;1799483;78;21162;-88
2021/08/20 05:23:48;;;;;;;8.50;5.08;;;;;;;12.28;79.83;93357.30;1795550;77;21575;-88
2021/08/20 05:26:15;;;;;;;6.95;5.03;;;;;;;12.57;78.68;93357.14;1786213;78;21066;-87
2021/08/20 05:28:42;;;;;;;7.58;4.65;;;;;;;12.90;77.45;93362.96;1763298;78;21502;-87
2021/08/20 05:31:09;;;;;;;5.37;4.03;;;;;;;13.22;76.92;93360.35;1746777;80;21174;-88
2021/08/20 05:33:36;;;;;;;5.65;4.42;;;;;;;13.63;75.41;93358.77;1752204;80;21043;-88
2021/08/20 05:36:04;;;;;;;7.03;4.55;;;;;;;13.94;74.00;93363.50;1751233;78;21743;-88
2021/08/20 05:38:31;;;;;;;6.45;4.92;;;;;;;14.22;73.50;93362.82;1800058;78;21034;-88
2021/08/20 05:40:58;;;;;;;6.40;4.17;;;;;;;14.64;72.42;93359.88;1799113;78;21366;-88
2021/08/20 05:43:24;;;;;;;10.38;5.50;;;;;;;15.19;70.66;93356.92;1810177;77;21104;-87
2021/08/20 05:45:51;;;;;;;10.05;5.47;;;;;;;15.62;69.09;93352.43;1797047;76;21135;-89
2021/08/20 05:48:18;;;;;;;6.75;5.42;;;;;;;15.84;68.42;93354.08;1776490;78;21022;-89
2021/08/20 05:50:45;;;;;;;6.83;5.40;;;;;;;15.99;67.15;93349.17;1811433;78;21444;-88
2021/08/20 05:53:12;;;;;;;10.98;6.65;;;;;;;16.03;66.98;93355.94;1813822;77;21072;-89
2021/08/20 05:55:39;;;;;;;7.92;4.47;;;;;;;15.98;67.17;93351.75;1812499;78;21047;-89
2021/08/20 05:58:05;;;;;;;5.95;5.03;;;;;;;15.87;67.21;93355.94;1806534;78;21099;-89
2021/08/20 06:00:33;;;;;;;9.28;4.37;;;;;;;15.78;67.76;93351.84;1775955;78;21074;-90
2021/08/20 06:03:06;;;;;;;7.20;4.72;;;;;;;15.73;67.94;93355.11;1740457;80;21133;-88
2021/08/20 06:05:34;;;;;;;6.95;4.55;;;;;;;15.67;68.18;93352.70;1764827;78;21627;-88
2021/08/20 06:08:02;;;;;;;6.30;4.87;;;;;;;15.66;68.51;93355.28;1727932;79;21515;-88
2021/08/20 06:10:31;;;;;;;6.05;4.40;;;;;;;15.65;68.80;93346.89;1751179;79;21109;-87
2021/08/20 06:13:00;;;;;;;5.87;4.20;;;;;;;15.67;69.18;93355.44;1705018;81;21069;-87
2021/08/20 06:15:27;;;;;;;5.70;4.78;;;;;;;15.78;69.05;93357.33;1714928;81;21044;-87
2021/08/20 06:17:53;;;;;;;7.30;4.05;;;;;;;15.96;68.81;93356.12;1741098;80;21110;-88
2021/08/20 06:20:21;;;;;;;6.45;4.03;;;;;;;16.21;67.67;93358.20;1698401;82;21086;-87
2021/08/20 06:22:50;;;;;;;6.60;4.95;;;;;;;16.54;66.61;93355.37;1780308;78;21065;-86
2021/08/20 06:25:16;;;;;;;5.42;4.15;;;;;;;16.90;65.76;93361.42;1755337;78;21597;-88
2021/08/20 06:27:42;;;;;;;3.50;3.17;;;;;;;17.30;64.04;93352.80;1723750;79;21643;-88
2021/08/20 06:30:09;;;;;;;7.20;4.03;;;;;;;17.70;62.71;93358.59;1763144;78;21337;-88
2021/08/20 06:32:37;;;;;;;5.53;3.77;;;;;;;17.95;61.60;93359.80;1789302;78;21327;-87
2021/08/20 06:35:05;;;;;;;6.80;4.42;;;;;;;18.10;60.40;93362.84;1791556;77;21038;-88
2021/08/20 06:37:31;;;;;;;7.90;4.30;;;;;;;18.27;60.29;93353.81;1732890;77;21077;-88
2021/08/20 06:39:58;;;;;;;5.62;4.33;;;;;;;18.40;59.35;93354.55;1698151;82;21089;-88
2021/08/20 06:42:26;;;;;;;5.90;4.00;;;;;;;18.52;59.55;93350.97;1701721;81;22005;-88
2021/08/20 06:44:52;;;;;;;5.37;4.10;;;;;;;18.59;58.79;93357.60;1717636;78;21121;-86
2021/08/20 06:47:19;;;;;;;4.75;4.20;;;;;;;18.60;58.27;93355.61;1815870;77;21033;-86
2021/08/20 06:49:47;;;;;;;5.15;4.28;;;;;;;18.56;59.17;93353.59;1735915;79;21102;-86
2021/08/20 06:52:13;;;;;;;5.25;3.85;;;;;;;18.49;58.39;93353.23;1747242;78;21057;-86
2021/08/20 06:54:40;;;;;;;5.28;3.87;;;;;;;18.40;57.54;93349.05;1764958;78;21092;-88
2021/08/20 06:57:06;;;;;;;7.28;4.25;;;;;;;18.25;58.36;93350.75;1701668;81;21706;-88
2021/08/20 06:59:33;;;;;;;4.08;3.62;;;;;;;18.15;59.22;93349.28;1708156;81;21062;-88
2021/08/20 07:02:01;;;;;;;5.35;4.12;;;;;;;18.12;59.46;93350.16;1685377;81;21083;-88
2021/08/20 07:04:27;;;;;;;5.70;4.30;;;;;;;18.12;59.57;93351.55;1751634;79;21082;-87
2021/08/20 07:06:55;;;;;;;4.78;4.10;;;;;;;18.13;59.11;93345.45;1745471;79;21117;-87
2021/08/20 07:09:24;;;;;;;6.05;3.72;;;;;;;18.14;59.69;93336.75;1726673;80;21609;-88
2021/08/20 07:11:53;;;;;;;5.92;4.22;;;;;;;18.13;59.81;93344.84;1703956;81;21112;-88
2021/08/20 07:14:19;;;;;;;4.30;3.67;;;;;;;18.09;60.53;93341.45;1740445;80;21031;-88
2021/08/20 07:16:47;;;;;;;4.00;3.60;;;;;;;18.07;60.73;93343.86;1776674;78;21104;-89
2021/08/20 07:19:14;;;;;;;4.10;3.70;;;;;;;18.03;60.63;93343.83;1790377;78;21484;-87
2021/08/20 07:21:40;;;;;;;4.28;3.87;;;;;;;17.99;60.00;93335.69;1786082;78;21967;-86
2021/08/20 07:24:08;;;;;;;3.95;3.40;;;;;;;17.92;59.92;93342.20;1773224;79;21085;-86
2021/08/20 07:26:35;;;;;;;5.20;3.12;;;;;;;17.91;60.21;93340.66;1793617;78;21045;-87
2021/08/20 07:29:03;;;;;;;3.30;3.00;;;;;;;17.95;59.86;93341.92;1803394;77;21703;-88
2021/08/20 07:31:33;;;;;;;5.58;3.05;;;;;;;17.99;59.42;93345.32;1807326;77;21109;-87
2021/08/20 07:33:59;;;;;;;3.30;2.90;;;;;;;17.98;59.20;93352.05;1801382;77;21828;-86
2021/08/20 07:36:26;;;;;;;3.62;3.12;;;;;;;17.95;59.47;93351.55;1805011;77;21029;-87
2021/08/20 07:38:56;;;;;;;4.80;3.25;;;;;;;17.99;59.12;93348.68;1801882;78;21010;-86
2021/08/20 07:41:23;;;;;;;2.98;2.50;;;;;;;18.04;59.28;93350.25;1777323;79;21081;-87
2021/08/20 07:43:51;;;;;;;3.05;2.77;;;;;;;18.12;59.12;93350.78;1781361;79;21047;-85
2021/08/20 07:46:17;;;;;;;3.12;2.60;;;;;;;18.18;58.61;93352.52;1730738;80;21090;-86
2021/08/20 07:48:50;;;;;;;4.67;2.75;;;;;;;18.22;58.00;93353.78;1731246;80;21651;-88
2021/08/20 07:51:17;;;;;;;3.27;2.37;;;;;;;18.27;58.15;93346.94;1757905;80;21098;-86
2021/08/20 07:53:48;;;;;;;2.70;2.50;;;;;;;18.32;57.64;93347.77;1763555;80;21068;-86
2021/08/20 07:56:16;;;;;;;2.77;2.42;;;;;;;18.35;57.36;93353.72;1802065;78;21149;-88
2021/08/20 07:58:44;;;;;;;2.40;2.20;;;;;;;18.28;57.01;93349.84;1800912;77;21690;-89
2021/08/20 08:01:11;;;;;;;2.27;2.08;;;;;;;18.20;57.09;93350.11;1772930;78;21361;-88
2021/08/20 08:03:38;;;;;;;2.60;2.40;;;;;;;18.16;57.48;93351.42;1780036;78;21177;-88
2021/08/20 08:06:05;;;;;;;2.15;1.95;;;;;;;18.24;57.70;93346.44;1783542;77;21066;-89
2021/08/20 08:08:32;;;;;;;2.20;2.00;;;;;;;18.38;56.46;93345.95;1738532;78;21501;-87
2021/08/20 08:11:02;;;;;;;2.98;1.98;;;;;;;18.47;56.00;93347.42;1767297;79;21086;-86
2021/08/20 08:13:28;;;;;;;4.37;1.98;;;;;;;18.59;55.19;93341.08;1770951;78;21125;-88
2021/08/20 08:15:56;;;;;;;3.87;3.00;;;;;;;18.73;55.05;93343.97;1776824;77;21058;-86
2021/08/20 08:18:24;;;;;;;1.95;1.77;;;;;;;18.88;54.68;93338.68;1774546;78;21042;-86
2021/08/20 08:20:50;;;;;;;1.70;1.60;;;;;;;19.05;52.93;93342.77;1811218;77;21642;-86
2021/08/20 08:23:21;;;;;;;1.98;1.50;;;;;;;19.10;51.75;93342.17;1799981;77;21419;-85
2021/08/20 08:25:49;;;;;;;1.47;1.37;;;;;;;19.16;51.73;93351.41;1789902;78;21074;-87
2021/08/20 08:28:15;;;;;;;2.17;1.60;;;;;;;19.30;48.66;93343.83;1791836;78;21066;-87
2021/08/20 08:30:42;;;;;;;1.65;1.55;;;;;;;19.44;50.22;93341.11;1794755;78;21622;-87
2021/08/20 08:33:09;;;;;;;1.50;1.40;;;;;;;19.55;50.34;93338.09;1762704;80;21145;-86
2021/08/20 08:35:36;;;;;;;2.37;1.65;;;;;;;19.65;49.66;93333.41;1766882;79;21114;-88
2021/08/20 08:38:14;;;;;;;2.05;1.80;;;;;;;19.67;49.76;93333.73;1797290;77;21440;-88
2021/08/20 08:40:43;;;;;;;1.20;1.10;;;;;;;19.63;48.12;93341.36;1797078;77;21141;-87
2021/08/20 08:43:10;;;;;;;1.40;1.30;;;;;;;19.63;49.46;93335.84;1801014;77;21116;-87
2021/08/20 08:45:36;;;;;;;2.83;2.22;;;;;;;19.68;49.55;93333.12;1813467;77;21104;-88
2021/08/20 08:48:05;;;;;;;2.33;2.05;;;;;;;19.70;47.60;93327.28;1775208;78;21126;-86
2021/08/20 08:50:32;;;;;;;1.85;1.55;;;;;;;19.71;47.59;93332.19;1788592;79;21028;-87
2021/08/20 08:52:58;;;;;;;4.00;1.70;;;;;;;19.70;46.57;93329.28;1797748;77;21689;-87
2021/08/20 08:55:25;;;;;;;1.70;1.60;;;;;;;19.73;47.72;93331.89;1799719;77;21025;-88
2021/08/20 08:57:51;;;;;;;1.42;1.32;;;;;;;19.82;45.60;93327.00;1790686;79;21046;-87
2021/08/20 09:00:33;;;;;;;1.45;1.35;;;;;;;19.80;45.46;93328.84;1795762;79;21117;-89
2021/08/20 09:02:59;;;;;;;1.87;1.77;;;;;;;19.76;46.02;93325.47;1792584;78;21448;-88
2021/08/20 09:05:26;;;;;;;3.92;1.60;;;;;;;19.63;46.41;93333.88;1801229;78;21077;-87
2021/08/20 09:07:54;;;;;;;3.02;1.55;;;;;;;19.59;46.82;93329.05;1794037;78;21054;-86
2021/08/20 09:10:23;;;;;;;1.62;1.52;;;;;;;19.65;46.80;93332.80;1788418;78;21366;-86
2021/08/20 09:13:00;;;;;;;1.82;1.62;;;;;;;19.71;46.35;93328.84;1792573;79;21756;-86
2021/08/20 09:15:31;;;;;;;3.47;2.10;;;;;;;19.74;46.14;93334.03;1802464;77;21049;-87
2021/08/20 09:18:00;;;;;;;7.35;1.85;;;;;;;19.81;46.55;93333.75;1804058;77;22188;-87
2021/08/20 09:20:29;;;;;;;1.55;1.12;;;;;;;19.81;45.88;93322.72;1782318;77;21102;-86
2021/08/20 09:22:58;;;;;;;7.53;1.98;;;;;;;19.82;46.35;93329.17;1796499;77;21161;-89
2021/08/20 09:25:30;;;;;;;2.77;1.50;;;;;;;19.79;46.58;93327.94;1810549;77;21761;-89
2021/08/20 09:28:18;;;;;;;56.02;30.50;;;;;;;19.78;44.29;93327.76;1784558;77;21144;-89
2021/08/20 09:33:17;;;;;;;5.33;3.70;;;;;;;19.78;46.27;93336.83;1805408;77;21072;-88
2021/08/20 09:35:43;;;;;;;2.92;2.20;;;;;;;19.77;47.87;93331.13;1791573;77;21034;-87
2021/08/20 09:38:12;;;;;;;3.22;1.90;;;;;;;19.75;46.69;93332.84;1766430;79;21060;-86
2021/08/20 09:40:46;;;;;;;4.33;2.25;;;;;;;19.71;46.47;93331.59;1797160;78;21036;-86
2021/08/20 09:43:19;;;;;;;5.87;1.90;;;;;;;19.70;47.17;93330.66;1770807;78;21141;-86
2021/08/20 09:45:42;;;;;;;2.30;2.10;;;;;;;19.73;47.08;93333.89;1788304;79;21597;-87
2021/08/20 09:48:08;;;;;;;4.00;2.02;;;;;;;19.78;46.63;93332.69;1711803;79;21057;-88
2021/08/20 09:50:42;;;;;;;12.13;2.67;;;;;;;19.81;47.31;93324.86;1770365;78;21152;-86
2021/08/20 09:53:15;;;;;;;2.25;2.00;;;;;;;19.81;47.29;93327.62;1769063;79;21026;-87
2021/08/20 09:55:43;;;;;;;1.90;1.80;;;;;;;19.84;46.59;93327.33;1769034;79;21660;-86
2021/08/20 09:58:11;;;;;;;2.85;1.92;;;;;;;19.88;45.93;93324.57;1749492;80;21051;-87
2021/08/20 10:00:38;;;;;;;4.42;1.90;;;;;;;19.91;44.72;93321.52;1774531;78;21093;-89
2021/08/20 10:03:09;;;;;;;5.65;2.20;;;;;;;19.98;45.89;93317.09;1802112;77;21291;-88
2021/08/20 10:05:38;;;;;;;2.58;1.60;;;;;;;20.09;47.12;93304.98;1786122;77;21707;-86
2021/08/20 10:08:09;;;;;;;2.95;1.60;;;;;;;20.18;46.77;93320.02;1811076;77;21492;-87
2021/08/20 10:10:43;;;;;;;2.22;2.02;;;;;;;20.22;47.46;93317.88;1793843;77;21042;-88
2021/08/20 10:13:12;;;;;;;2.15;1.80;;;;;;;20.17;46.91;93317.11;1723693;80;21618;-87
2021/08/20 10:15:39;;;;;;;2.40;1.85;;;;;;;20.17;46.91;93317.11;1773301;78;21286;-86
2021/08/20 10:18:06;;;;;;;2.55;2.05;;;;;;;20.12;46.85;93314.33;1795274;78;21037;-87
2021/08/20 10:20:34;;;;;;;19.00;5.22;;;;;;;20.01;47.58;93320.91;1804221;77;21088;-88
2021/08/20 10:23:02;;;;;;;6.87;3.60;;;;;;;19.91;48.34;93319.38;1809235;77;21096;-88
2021/08/20 10:25:30;;;;;;;2.52;2.05;;;;;;;19.98;49.75;93320.46;1805042;77;21201;-89
2021/08/20 10:27:56;;;;;;;4.03;2.15;;;;;;;20.11;46.99;93317.70;1806234;78;21151;-86
2021/08/20 10:30:23;;;;;;;6.42;4.35;;;;;;;20.17;47.74;93322.02;1803360;78;21411;-87
2021/08/20 10:33:02;;;;;;;3.50;2.50;;;;;;;20.21;48.15;93320.48;1809494;77;21066;-85
2021/08/20 10:35:52;;;;;;;5.20;3.37;;;;;;;20.26;47.27;93320.62;1810547;79;21052;-87
2021/08/20 10:38:35;;;;;;;4.35;2.83;;;;;;;20.35;48.63;93324.03;1791738;78;21160;-88
2021/08/20 10:41:17;;;;;;;1.80;1.70;;;;;;;20.44;47.72;93330.16;1784295;78;21045;-85
2021/08/20 10:43:59;;;;;;;2.95;2.40;;;;;;;20.44;45.97;93323.25;1799738;77;21047;-88
2021/08/20 10:46:41;;;;;;;4.25;2.27;;;;;;;20.38;46.60;93320.32;1765574;79;21066;-88
2021/08/20 10:51:56;;;;;;;7.05;1.62;;;;;;;20.31;49.13;93318.66;1758167;78;21004;-85
2021/08/20 10:54:37;;;;;;;4.53;2.30;;;;;;;20.34;48.44;93311.42;1795879;77;21187;-87
2021/08/20 10:57:14;;;;;;;1.98;1.87;;;;;;;20.32;47.80;93311.14;1787446;77;21468;-88
2021/08/20 10:59:46;;;;;;;2.50;2.25;;;;;;;20.31;48.35;93317.86;1806380;77;21819;-86
2021/08/20 11:02:25;;;;;;;3.92;2.27;;;;;;;20.25;48.21;93313.58;1788753;77;21074;-86
2021/08/20 11:05:06;;;;;;;1.92;1.80;;;;;;;20.24;48.30;93310.67;1778459;79;21042;-87
2021/08/20 11:07:42;;;;;;;1.90;1.80;;;;;;;20.26;47.20;93305.45;1796772;78;21109;-86
2021/08/20 11:10:15;;;;;;;3.25;1.80;;;;;;;20.21;47.14;93307.45;1819060;77;22458;-86
2021/08/20 11:12:51;;;;;;;2.45;2.25;;;;;;;20.13;46.82;93308.36;1808912;77;21093;-87
2021/08/20 11:15:27;;;;;;;3.10;2.30;;;;;;;20.15;46.84;93302.37;1807834;77;21073;-89
2021/08/20 11:18:04;;;;;;;2.27;2.08;;;;;;;20.18;46.33;93301.46;1787076;77;21062;-87
2021/08/20 11:20:49;;;;;;;2.30;2.10;;;;;;;20.16;45.29;93306.69;1782338;78;21073;-87
2021/08/20 11:23:17;;;;;;;2.00;1.80;;;;;;;20.10;45.99;93303.75;1787722;79;21069;-87
2021/08/20 11:25:52;;;;;;;2.20;1.87;;;;;;;20.08;45.95;93300.70;1792241;79;21038;-86
2021/08/20 11:28:31;;;;;;;3.00;2.02;;;;;;;20.10;46.49;93299.61;1800547;77;21073;-87
2021/08/20 11:31:09;;;;;;;2.70;2.50;;;;;;;20.05;46.17;93297.47;1811973;77;21073;-89
2021/08/20 11:33:38;;;;;;;2.05;1.90;;;;;;;20.03;46.55;93299.15;1751498;77;21743;-87
2021/08/20 11:36:18;;;;;;;2.02;1.92;;;;;;;20.03;46.85;93288.11;1766422;78;21716;-87
2021/08/20 11:39:01;;;;;;;2.80;1.87;;;;;;;20.07;46.88;93289.48;1779349;78;20994;-88
2021/08/20 11:41:42;;;;;;;2.08;1.87;;;;;;;20.16;46.46;93289.33;1776791;78;21088;-88
2021/08/20 11:44:10;;;;;;;1.72;1.62;;;;;;;20.19;46.41;93287.80;1776226;78;21132;-87
2021/08/20 11:46:52;;;;;;;3.12;1.77;;;;;;;20.24;47.35;93281.69;1781626;78;21733;-89
2021/08/20 11:49:27;;;;;;;2.20;1.62;;;;;;;20.33;46.54;93279.53;1814799;77;21094;-87
2021/08/20 11:52:03;;;;;;;2.30;2.10;;;;;;;20.39;48.08;93274.94;1803265;77;21065;-88